createdAt,value
2017-05-31T00:00:33.330Z,21.32
2017-05-31T00:03:02.314Z,21.13
2017-05-31T00:05:31.329Z,22.12
2017-05-31T00:08:00.316Z,20.67
2017-05-31T00:10:29.325Z,22.50
2017-05-31T00:12:58.347Z,22.37
2017-05-31T00:15:27.347Z,21.62
2017-05-31T00:17:56.334Z,21.12
2017-05-31T00:20:25.374Z,20.78
2017-05-31T00:22:54.360Z,20.10
2017-05-31T00:25:23.355Z,19.50
2017-05-31T00:27:52.391Z,21.07
2017-05-31T00:30:21.375Z,23.20
2017-05-31T00:32:50.380Z,22.25
2017-05-31T00:35:19.415Z,21.15
2017-05-31T00:37:48.437Z,20.63
2017-05-31T00:40:17.438Z,21.92
2017-05-31T00:42:46.478Z,21.53
2017-05-31T00:45:15.480Z,21.70
2017-05-31T00:47:44.481Z,20.45
2017-05-31T00:50:13.509Z,21.57
2017-05-31T00:52:42.494Z,22.60
2017-05-31T00:55:11.482Z,21.22
2017-05-31T00:57:40.489Z,21.08
2017-05-31T01:00:09.499Z,21.07
2017-05-31T01:02:38.500Z,21.95
2017-05-31T01:05:07.533Z,21.95
2017-05-31T01:07:36.533Z,20.62
2017-05-31T01:10:05.518Z,21.40
2017-05-31T01:12:34.538Z,21.92
2017-05-31T01:15:03.534Z,22.13
2017-05-31T01:17:32.519Z,20.32
2017-05-31T01:20:01.554Z,20.23
2017-05-31T01:22:30.565Z,21.67
2017-05-31T01:24:59.566Z,20.05
2017-05-31T01:27:28.709Z,21.87
2017-05-31T01:29:57.699Z,20.23
2017-05-31T01:32:26.682Z,22.32
2017-05-31T01:34:55.713Z,20.37
2017-05-31T01:37:24.699Z,22.47
2017-05-31T01:39:53.691Z,20.87
2017-05-31T01:42:22.706Z,19.83
2017-05-31T01:44:51.698Z,20.63
2017-05-31T01:47:20.702Z,18.83
2017-05-31T01:49:49.714Z,20.17
2017-05-31T01:52:18.698Z,21.58
2017-05-31T01:54:47.686Z,19.62
2017-05-31T01:57:16.721Z,20.22
2017-05-31T01:59:45.724Z,21.92
2017-05-31T02:02:14.725Z,21.60
2017-05-31T02:04:43.738Z,20.45
2017-05-31T02:07:12.747Z,19.93
2017-05-31T02:09:41.750Z,20.67
2017-05-31T02:12:10.785Z,20.53
2017-05-31T02:14:39.772Z,21.28
2017-05-31T02:17:08.777Z,20.47
2017-05-31T02:19:37.786Z,20.26
2017-05-31T02:22:06.792Z,19.32
2017-05-31T02:24:35.774Z,20.30
2017-05-31T02:27:04.804Z,19.67
2017-05-31T02:29:33.809Z,19.95
2017-05-31T02:32:02.790Z,19.02
2017-05-31T02:34:31.821Z,19.97
2017-05-31T02:37:00.853Z,19.97
2017-05-31T02:39:29.858Z,18.97
2017-05-31T02:41:58.889Z,20.27
2017-05-31T02:44:27.896Z,19.08
2017-05-31T02:46:56.878Z,19.18
2017-05-31T02:49:25.905Z,18.97
2017-05-31T02:51:54.891Z,17.83
2017-05-31T02:54:23.879Z,18.60
2017-05-31T02:56:52.897Z,17.23
2017-05-31T02:59:21.906Z,20.57
2017-05-31T03:01:50.906Z,18.72
2017-05-31T03:04:20.334Z,21.08
2017-05-31T03:06:49.337Z,22.85
2017-05-31T03:09:18.330Z,23.88
2017-05-31T03:11:47.361Z,22.87
2017-05-31T03:14:16.367Z,24.58
2017-05-31T03:16:45.378Z,23.98
2017-05-31T03:19:14.404Z,22.77
2017-05-31T03:21:43.402Z,25.37
2017-05-31T03:24:12.411Z,23.32
2017-05-31T03:26:41.432Z,24.33
2017-05-31T03:29:10.441Z,24.63
2017-05-31T03:31:39.429Z,24.63
2017-05-31T03:34:08.444Z,24.57
2017-05-31T03:36:37.443Z,25.10
2017-05-31T03:39:06.471Z,21.97
2017-05-31T03:41:35.507Z,24.37
2017-05-31T03:44:04.493Z,23.03
2017-05-31T03:46:33.498Z,23.90
2017-05-31T03:49:02.537Z,22.27
2017-05-31T03:51:31.548Z,22.98
2017-05-31T03:54:00.535Z,23.45
2017-05-31T03:56:29.571Z,22.35
2017-05-31T03:58:58.573Z,23.80
2017-05-31T04:01:27.578Z,22.92
2017-05-31T04:03:56.610Z,24.25
2017-05-31T04:06:25.618Z,24.67
2017-05-31T04:08:54.623Z,22.15
2017-05-31T04:11:23.639Z,22.98
2017-05-31T04:13:52.623Z,23.38
2017-05-31T04:16:21.615Z,23.57
2017-05-31T04:18:50.627Z,23.68
2017-05-31T04:21:19.609Z,23.15
2017-05-31T04:23:48.592Z,22.75
2017-05-31T04:26:17.631Z,22.97
2017-05-31T04:28:46.627Z,24.23
2017-05-31T04:31:15.614Z,23.28
2017-05-31T04:33:44.630Z,25.58
2017-05-31T04:36:13.625Z,23.27
2017-05-31T04:38:42.634Z,23.48
2017-05-31T04:41:11.654Z,24.00
2017-05-31T04:43:40.641Z,25.77
2017-05-31T04:46:09.622Z,24.68
2017-05-31T04:48:38.653Z,24.70
2017-05-31T04:51:07.641Z,24.18
2017-05-31T04:53:36.654Z,23.82
2017-05-31T04:56:05.666Z,22.02
2017-05-31T04:58:34.650Z,23.42
2017-05-31T05:01:03.637Z,20.98
2017-05-31T05:03:32.652Z,21.28
2017-05-31T05:06:01.639Z,19.27
2017-05-31T05:08:30.644Z,16.43
2017-05-31T05:10:59.663Z,16.22
2017-05-31T05:13:28.672Z,13.32
2017-05-31T05:15:57.659Z,8.73
2017-05-31T05:18:26.669Z,8.10
2017-05-31T05:20:55.642Z,7.57
2017-05-31T05:23:24.637Z,7.20
2017-05-31T05:25:53.646Z,5.18
2017-05-31T05:28:22.622Z,6.63
2017-05-31T05:30:51.626Z,6.53
2017-05-31T05:33:20.674Z,6.40
2017-05-31T05:35:49.676Z,7.13
2017-05-31T05:38:18.657Z,7.48
2017-05-31T05:40:47.682Z,6.47
2017-05-31T05:43:16.653Z,7.23
2017-05-31T05:45:45.632Z,6.03
2017-05-31T05:48:14.656Z,5.53
2017-05-31T05:50:43.662Z,6.25
2017-05-31T05:53:12.604Z,6.95
2017-05-31T05:55:41.615Z,5.05
2017-05-31T05:58:11.495Z,4.78
2017-05-31T06:00:40.436Z,4.18
2017-05-31T06:03:10.636Z,3.38
2017-05-31T06:05:39.589Z,3.95
2017-05-31T06:08:08.528Z,3.20
2017-05-31T06:10:37.482Z,3.47
2017-05-31T06:13:06.430Z,3.30
2017-05-31T06:15:35.378Z,3.43
2017-05-31T06:18:04.348Z,3.47
2017-05-31T06:20:33.276Z,3.27
2017-05-31T06:23:02.214Z,3.35
2017-05-31T06:25:31.181Z,2.68
2017-05-31T06:28:00.121Z,3.57
2017-05-31T06:30:29.039Z,3.22
2017-05-31T06:32:58.449Z,2.57
2017-05-31T06:35:27.417Z,2.70
2017-05-31T06:37:56.357Z,2.35
2017-05-31T06:40:25.306Z,2.30
2017-05-31T06:42:54.249Z,2.70
2017-05-31T06:45:23.169Z,2.68
2017-05-31T06:47:52.140Z,2.98
2017-05-31T06:50:21.070Z,2.53
2017-05-31T06:52:49.993Z,2.87
2017-05-31T06:55:18.969Z,3.16
2017-05-31T06:57:47.886Z,2.93
2017-05-31T07:00:16.806Z,3.25
2017-05-31T07:02:45.774Z,2.55
2017-05-31T07:05:14.699Z,2.27
2017-05-31T07:07:43.644Z,2.25
2017-05-31T07:10:12.602Z,2.30
2017-05-31T07:12:41.541Z,2.23
2017-05-31T07:15:10.462Z,2.57
2017-05-31T07:17:39.418Z,2.38
2017-05-31T07:20:08.374Z,2.05
2017-05-31T07:22:37.325Z,2.07
2017-05-31T07:25:06.296Z,2.27
2017-05-31T07:27:35.326Z,2.08
2017-05-31T07:30:04.272Z,3.60
2017-05-31T07:32:33.341Z,2.40
2017-05-31T07:35:02.266Z,2.60
2017-05-31T07:37:31.208Z,2.55
2017-05-31T07:40:00.181Z,2.93
2017-05-31T07:42:29.154Z,2.77
2017-05-31T07:44:58.093Z,2.35
2017-05-31T07:47:27.121Z,2.12
2017-05-31T07:49:56.185Z,2.00
2017-05-31T07:52:25.196Z,2.68
2017-05-31T07:54:54.168Z,2.73
2017-05-31T07:57:23.108Z,2.80
2017-05-31T07:59:52.027Z,2.20
2017-05-31T08:02:21.091Z,2.20
2017-05-31T08:04:50.036Z,2.18
2017-05-31T08:07:18.978Z,3.43
2017-05-31T08:09:47.950Z,3.38
2017-05-31T08:12:16.878Z,1.78
2017-05-31T08:14:45.821Z,2.22
2017-05-31T08:17:14.769Z,1.85
2017-05-31T08:19:43.705Z,2.12
2017-05-31T08:22:12.644Z,2.12
2017-05-31T08:24:41.851Z,2.20
2017-05-31T08:27:10.781Z,2.50
2017-05-31T08:29:39.709Z,2.00
2017-05-31T08:32:08.680Z,1.85
2017-05-31T08:34:37.628Z,1.70
2017-05-31T08:37:06.576Z,2.10
2017-05-31T08:39:35.543Z,1.82
2017-05-31T08:42:04.468Z,1.90
2017-05-31T08:44:33.422Z,1.76
2017-05-31T08:47:02.402Z,1.66
2017-05-31T08:49:31.347Z,1.50
2017-05-31T08:52:00.278Z,1.70
2017-05-31T08:54:29.240Z,1.70
2017-05-31T08:56:58.161Z,1.62
2017-05-31T08:59:27.182Z,1.64
2017-05-31T09:01:56.166Z,1.40
2017-05-31T09:04:25.120Z,1.70
2017-05-31T09:06:54.061Z,1.72
2017-05-31T09:09:23.016Z,1.94
2017-05-31T09:11:51.937Z,1.82
2017-05-31T09:14:20.892Z,1.94
2017-05-31T09:16:49.860Z,1.96
2017-05-31T09:19:18.800Z,1.92
2017-05-31T09:21:47.734Z,1.88
2017-05-31T09:24:16.705Z,2.10
2017-05-31T09:26:45.626Z,1.98
2017-05-31T09:29:14.541Z,2.62
2017-05-31T09:31:43.499Z,2.40
2017-05-31T09:34:12.421Z,2.30
2017-05-31T09:36:41.345Z,2.40
2017-05-31T09:39:10.317Z,1.82
2017-05-31T09:41:39.242Z,2.56
2017-05-31T09:44:08.164Z,2.20
2017-05-31T09:46:37.121Z,2.42
2017-05-31T09:49:06.065Z,2.20
2017-05-31T09:51:35.001Z,2.30
2017-05-31T09:54:04.949Z,2.08
2017-05-31T09:56:33.888Z,2.00
2017-05-31T09:59:02.805Z,2.00
2017-05-31T10:01:31.753Z,2.10
2017-05-31T10:04:00.683Z,1.96
2017-05-31T10:06:29.601Z,1.98
2017-05-31T10:08:58.573Z,2.08
2017-05-31T10:11:27.514Z,2.06
2017-05-31T10:13:56.449Z,2.38
2017-05-31T10:16:25.413Z,2.50
2017-05-31T10:18:54.338Z,2.40
2017-05-31T10:21:23.275Z,2.06
2017-05-31T10:23:52.222Z,2.90
2017-05-31T10:26:21.164Z,2.12
2017-05-31T10:28:50.079Z,2.06
2017-05-31T10:31:19.026Z,1.74
2017-05-31T10:33:47.955Z,2.68
2017-05-31T10:36:16.907Z,3.78
2017-05-31T10:38:45.863Z,2.34
2017-05-31T10:41:14.812Z,2.48
2017-05-31T10:43:43.750Z,2.80
2017-05-31T10:46:12.720Z,2.18
2017-05-31T10:48:41.655Z,2.18
2017-05-31T10:51:10.593Z,2.10
2017-05-31T10:53:39.547Z,2.00
2017-05-31T10:56:08.474Z,2.58
2017-05-31T10:58:37.413Z,3.16
2017-05-31T11:01:06.389Z,3.02
2017-05-31T11:03:35.310Z,2.56
2017-05-31T11:06:04.254Z,2.26
2017-05-31T11:08:33.225Z,2.50
2017-05-31T11:11:02.142Z,2.54
2017-05-31T11:13:31.069Z,2.70
2017-05-31T11:16:00.058Z,2.78
2017-05-31T11:18:29.004Z,2.18
2017-05-31T11:20:57.944Z,2.78
2017-05-31T11:23:26.913Z,2.70
2017-05-31T11:25:55.834Z,3.28
2017-05-31T11:28:24.756Z,2.94
2017-05-31T11:30:53.728Z,2.48
2017-05-31T11:33:22.677Z,3.00
2017-05-31T11:35:51.621Z,3.50
2017-05-31T11:38:20.592Z,3.52
2017-05-31T11:40:49.537Z,2.98
2017-05-31T11:43:18.482Z,2.90
2017-05-31T11:45:47.468Z,3.20
2017-05-31T11:48:16.425Z,3.03
2017-05-31T11:50:45.372Z,3.82
2017-05-31T11:53:14.322Z,3.74
2017-05-31T11:55:43.269Z,3.23
2017-05-31T11:58:12.214Z,3.37
2017-05-31T12:00:41.185Z,3.20
2017-05-31T12:03:10.106Z,2.87
2017-05-31T12:05:39.059Z,3.07
2017-05-31T12:08:08.210Z,2.68
2017-05-31T12:10:37.153Z,2.70
2017-05-31T12:13:06.092Z,3.50
2017-05-31T12:15:35.061Z,3.03
2017-05-31T12:18:03.981Z,3.50
2017-05-31T12:20:32.924Z,2.77
2017-05-31T12:23:01.894Z,3.48
2017-05-31T12:25:30.838Z,3.08
2017-05-31T12:27:59.761Z,4.45
2017-05-31T12:30:28.733Z,3.03
2017-05-31T12:32:57.670Z,3.23
2017-05-31T12:35:26.598Z,3.18
2017-05-31T12:37:55.582Z,3.35
2017-05-31T12:40:24.559Z,3.52
2017-05-31T12:42:53.489Z,2.88
2017-05-31T12:45:22.457Z,2.83
2017-05-31T12:47:51.402Z,3.43
2017-05-31T12:50:20.327Z,3.90
2017-05-31T12:52:49.303Z,2.63
2017-05-31T12:55:18.242Z,3.18
2017-05-31T12:57:47.178Z,3.13
2017-05-31T13:00:16.126Z,2.80
2017-05-31T13:02:45.079Z,2.83
2017-05-31T13:05:14.022Z,3.10
2017-05-31T13:07:42.977Z,3.50
2017-05-31T13:10:11.901Z,2.97
2017-05-31T13:12:40.842Z,3.23
2017-05-31T13:15:09.813Z,3.03
2017-05-31T13:17:38.730Z,3.28
2017-05-31T13:20:07.652Z,2.83
2017-05-31T13:22:36.607Z,2.98
2017-05-31T13:25:05.528Z,3.53
2017-05-31T13:27:34.450Z,2.98
2017-05-31T13:30:03.420Z,4.07
2017-05-31T13:32:32.343Z,2.97
2017-05-31T13:35:01.259Z,3.08
2017-05-31T13:37:30.231Z,3.00
2017-05-31T13:39:59.172Z,3.53
2017-05-31T13:42:28.101Z,3.17
2017-05-31T13:44:57.083Z,3.72
2017-05-31T13:47:26.030Z,2.95
2017-05-31T13:49:54.968Z,3.28
2017-05-31T13:52:23.914Z,2.70
2017-05-31T13:54:52.856Z,3.22
2017-05-31T13:57:21.800Z,3.07
2017-05-31T13:59:50.779Z,2.70
2017-05-31T14:02:19.698Z,2.97
2017-05-31T14:04:48.637Z,3.12
2017-05-31T14:07:17.587Z,3.18
2017-05-31T14:09:46.522Z,2.87
2017-05-31T14:12:15.442Z,3.48
2017-05-31T14:14:44.424Z,2.98
2017-05-31T14:17:13.364Z,2.82
2017-05-31T14:19:42.304Z,2.93
2017-05-31T14:22:11.258Z,2.77
2017-05-31T14:24:40.193Z,2.43
2017-05-31T14:27:09.124Z,3.17
2017-05-31T14:29:38.103Z,2.87
2017-05-31T14:32:07.028Z,2.88
2017-05-31T14:34:35.950Z,2.92
2017-05-31T14:37:04.907Z,3.67
2017-05-31T14:39:33.831Z,3.13
2017-05-31T14:42:02.773Z,2.80
2017-05-31T14:44:31.721Z,2.47
2017-05-31T14:47:00.641Z,2.77
2017-05-31T14:49:29.581Z,3.13
2017-05-31T14:51:58.565Z,3.65
2017-05-31T14:54:27.491Z,3.25
2017-05-31T14:56:56.419Z,4.35
2017-05-31T14:59:25.373Z,4.65
2017-05-31T15:01:54.310Z,3.25
2017-05-31T15:04:23.242Z,3.17
2017-05-31T15:06:52.206Z,4.00
2017-05-31T15:09:21.150Z,3.10
2017-05-31T15:11:50.081Z,3.03
2017-05-31T15:14:19.046Z,2.93
2017-05-31T15:16:47.984Z,3.25
2017-05-31T15:19:16.921Z,3.15
2017-05-31T15:21:45.875Z,2.90
2017-05-31T15:24:14.802Z,2.90
2017-05-31T15:26:43.753Z,2.98
2017-05-31T15:29:12.709Z,3.43
2017-05-31T15:31:41.635Z,3.35
2017-05-31T15:34:10.577Z,4.08
2017-05-31T15:36:39.556Z,4.25
2017-05-31T15:39:08.479Z,3.07
2017-05-31T15:41:37.421Z,4.57
2017-05-31T15:44:06.372Z,3.12
2017-05-31T15:46:35.291Z,4.88
2017-05-31T15:49:04.280Z,3.92
2017-05-31T15:51:33.245Z,3.60
2017-05-31T15:54:02.166Z,4.53
2017-05-31T15:56:31.108Z,4.20
2017-05-31T15:59:00.066Z,3.63
2017-05-31T16:01:29.005Z,3.48
2017-05-31T16:03:57.947Z,3.23
2017-05-31T16:06:26.898Z,3.07
2017-05-31T16:08:55.827Z,4.20
2017-05-31T16:11:24.769Z,4.37
2017-05-31T16:13:53.717Z,3.77
2017-05-31T16:16:22.646Z,2.57
2017-05-31T16:18:51.589Z,3.00
2017-05-31T16:21:20.538Z,3.22
2017-05-31T16:23:49.469Z,3.23
2017-05-31T16:26:18.408Z,3.63
2017-05-31T16:28:47.393Z,3.92
2017-05-31T16:31:16.313Z,4.30
2017-05-31T16:33:45.281Z,3.78
2017-05-31T16:36:14.238Z,4.83
2017-05-31T16:38:43.165Z,2.92
2017-05-31T16:41:12.113Z,3.43
2017-05-31T16:43:41.081Z,3.03
2017-05-31T16:46:10.028Z,3.73
2017-05-31T16:48:38.971Z,3.08
2017-05-31T16:51:07.917Z,3.20
2017-05-31T16:53:36.841Z,4.15
2017-05-31T16:56:05.780Z,4.75
2017-05-31T16:58:34.750Z,4.73
2017-05-31T17:01:03.671Z,3.17
2017-05-31T17:03:32.589Z,4.43
2017-05-31T17:06:01.572Z,3.65
2017-05-31T17:08:30.516Z,3.90
2017-05-31T17:10:59.444Z,3.15
2017-05-31T17:13:28.410Z,3.48
2017-05-31T17:15:57.360Z,4.60
2017-05-31T17:18:25.532Z,4.44
2017-05-31T17:20:54.504Z,3.42
2017-05-31T17:23:23.426Z,3.40
2017-05-31T17:25:52.345Z,2.92
2017-05-31T17:28:21.324Z,3.97
2017-05-31T17:30:50.254Z,3.43
2017-05-31T17:33:19.196Z,3.77
2017-05-31T17:35:48.146Z,3.33
2017-05-31T17:38:17.086Z,6.53
2017-05-31T17:40:46.010Z,4.52
2017-05-31T17:43:14.980Z,4.15
2017-05-31T17:45:43.944Z,3.25
2017-05-31T17:48:12.869Z,3.38
2017-05-31T17:50:42.290Z,5.98
2017-05-31T17:53:11.417Z,3.43
2017-05-31T17:55:40.352Z,8.17
2017-05-31T17:58:09.313Z,3.73
2017-05-31T18:00:38.258Z,11.43
2017-05-31T18:03:07.191Z,4.10
2017-05-31T18:05:36.146Z,5.17
2017-05-31T18:08:05.066Z,6.20
2017-05-31T18:10:33.994Z,8.37
2017-05-31T18:13:02.964Z,17.42
2017-05-31T18:15:31.913Z,9.95
2017-05-31T18:18:00.860Z,3.87
2017-05-31T18:20:29.822Z,6.23
2017-05-31T18:22:58.772Z,3.85
2017-05-31T18:25:27.686Z,3.32
2017-05-31T18:27:56.638Z,3.10
2017-05-31T18:30:25.578Z,3.38
2017-05-31T18:32:54.494Z,4.60
2017-05-31T18:35:23.475Z,4.07
2017-05-31T18:37:52.416Z,3.58
2017-05-31T18:40:21.341Z,3.47
2017-05-31T18:42:50.312Z,3.70
2017-05-31T18:45:19.684Z,4.45
2017-05-31T18:47:48.603Z,4.25
2017-05-31T18:50:17.549Z,5.82
2017-05-31T18:52:46.517Z,7.05
2017-05-31T18:55:15.447Z,12.45
2017-05-31T18:57:44.443Z,5.42
2017-05-31T19:00:13.375Z,7.00
2017-05-31T19:02:42.317Z,5.27
2017-05-31T19:05:11.278Z,5.67
2017-05-31T19:07:40.198Z,5.55
2017-05-31T19:10:09.140Z,5.52
2017-05-31T19:12:38.109Z,6.72
2017-05-31T19:15:07.035Z,4.70
2017-05-31T19:17:35.966Z,7.75
2017-05-31T19:20:04.955Z,12.03
2017-05-31T19:22:33.901Z,6.37
2017-05-31T19:25:02.852Z,3.28
2017-05-31T19:27:31.945Z,6.25
2017-05-31T19:30:00.917Z,7.70
2017-05-31T19:32:30.140Z,9.57
2017-05-31T19:34:59.120Z,4.40
2017-05-31T19:37:28.042Z,4.65
2017-05-31T19:39:56.992Z,10.57
2017-05-31T19:42:26.067Z,18.77
2017-05-31T19:44:55.009Z,11.38
2017-05-31T19:47:24.015Z,8.60
2017-05-31T19:49:52.978Z,4.55
2017-05-31T19:52:21.958Z,3.95
2017-05-31T19:54:50.886Z,11.05
2017-05-31T19:57:19.863Z,5.62
2017-05-31T19:59:48.791Z,5.70
2017-05-31T20:02:17.737Z,4.17
2017-05-31T20:04:46.709Z,3.73
2017-05-31T20:07:15.629Z,4.67
2017-05-31T20:09:44.573Z,3.72
2017-05-31T20:12:13.577Z,4.00
2017-05-31T20:14:42.936Z,4.00
2017-05-31T20:17:12.131Z,4.43
2017-05-31T20:19:41.118Z,4.85
2017-05-31T20:22:10.085Z,4.70
2017-05-31T20:24:39.041Z,5.00
2017-05-31T20:27:08.011Z,4.08
2017-05-31T20:29:37.223Z,5.03
2017-05-31T20:32:06.274Z,5.40
2017-05-31T20:34:35.242Z,7.18
2017-05-31T20:37:04.350Z,4.10
2017-05-31T20:39:33.278Z,5.58
2017-05-31T20:42:02.316Z,4.20
2017-05-31T20:44:31.306Z,4.43
2017-05-31T20:47:00.369Z,4.62
2017-05-31T20:49:29.414Z,4.97
2017-05-31T20:51:58.352Z,10.42
2017-05-31T20:54:27.330Z,6.75
2017-05-31T20:56:56.365Z,7.53
2017-05-31T20:59:25.331Z,7.60
2017-05-31T21:01:54.289Z,8.28
2017-05-31T21:04:23.284Z,6.77
2017-05-31T21:06:52.234Z,9.25
2017-05-31T21:09:21.189Z,5.35
2017-05-31T21:11:50.165Z,6.27
2017-05-31T21:14:19.113Z,8.22
2017-05-31T21:16:48.161Z,5.28
2017-05-31T21:19:17.172Z,6.28
2017-05-31T21:21:46.136Z,4.97
2017-05-31T21:24:15.076Z,5.77
2017-05-31T21:26:44.033Z,6.20
2017-05-31T21:29:12.981Z,4.63
2017-05-31T21:31:41.932Z,5.25
2017-05-31T21:34:10.892Z,6.40
2017-05-31T21:36:39.813Z,8.25
2017-05-31T21:39:08.752Z,9.37
2017-05-31T21:41:37.718Z,7.97
2017-05-31T21:44:06.669Z,7.23
2017-05-31T21:46:35.613Z,5.67
2017-05-31T21:49:04.582Z,5.10
2017-05-31T21:51:33.505Z,6.08
2017-05-31T21:54:02.431Z,8.30
2017-05-31T21:56:31.381Z,8.53
2017-05-31T21:59:00.301Z,6.73
2017-05-31T22:01:29.231Z,6.52
2017-05-31T22:03:58.213Z,5.93
2017-05-31T22:06:27.155Z,4.72
2017-05-31T22:08:56.097Z,5.15
2017-05-31T22:11:25.058Z,5.17
2017-05-31T22:13:54.070Z,5.60
2017-05-31T22:16:22.997Z,7.20
2017-05-31T22:18:51.976Z,4.80
2017-05-31T22:21:20.897Z,5.50
2017-05-31T22:23:49.830Z,5.07
2017-05-31T22:26:18.795Z,5.95
2017-05-31T22:28:47.725Z,4.98
2017-05-31T22:31:16.645Z,7.45
2017-05-31T22:33:45.621Z,5.37
2017-05-31T22:36:14.555Z,4.62
2017-05-31T22:38:43.478Z,8.70
2017-05-31T22:41:12.461Z,5.03
2017-05-31T22:43:41.407Z,5.78
2017-05-31T22:46:10.327Z,5.88
2017-05-31T22:48:39.305Z,6.25
2017-05-31T22:51:08.238Z,4.40
2017-05-31T22:53:37.163Z,5.33
2017-05-31T22:56:06.141Z,4.90
2017-05-31T22:58:36.250Z,5.57
2017-05-31T23:01:05.193Z,8.68
2017-05-31T23:03:34.172Z,6.50
2017-05-31T23:06:03.117Z,6.17
2017-05-31T23:08:32.061Z,6.50
2017-05-31T23:11:01.015Z,5.90
2017-05-31T23:13:29.941Z,4.82
2017-05-31T23:15:58.875Z,5.22
2017-05-31T23:18:27.874Z,5.32
2017-05-31T23:20:56.797Z,4.60
2017-05-31T23:23:25.721Z,4.60
2017-05-31T23:25:54.688Z,5.85
2017-05-31T23:28:23.635Z,6.47
2017-05-31T23:30:52.594Z,5.60
2017-05-31T23:33:21.546Z,4.97
2017-05-31T23:35:50.495Z,5.05
2017-05-31T23:38:19.439Z,5.05
2017-05-31T23:40:48.404Z,5.93
2017-05-31T23:43:17.327Z,5.13
2017-05-31T23:45:46.272Z,4.88
2017-05-31T23:48:15.242Z,5.37
2017-05-31T23:50:44.178Z,4.97
2017-05-31T23:53:13.105Z,5.25
2017-05-31T23:55:42.115Z,5.17
2017-05-31T23:58:11.041Z,6.28
